Time;durP1;ratioP1;P1;durP2;ratioP2;P2;SDS_P1;SDS_P2;PMS_P1;PMS_P2;Temp;Humidity;BMP_temperature;BMP_pressure;BME280_temperature;BME280_humidity;BME280_pressure;Samples;Min_cycle;Max_cycle;Signal;HPM_P1;HPM_P2
2021/12/25 00:00:49;;;;;;;214.53;106.77;;;;;;;;;;4414049;32;20201;-78
2021/12/25 00:03:16;;;;;;;233.57;115.80;;;;;;;;;;4397827;32;20288;-81
2021/12/25 00:05:42;;;;;;;271.23;133.07;;;;;;;;;;4410813;32;20614;-81
2021/12/25 00:08:07;;;;;;;246.77;119.03;;;;;;;;;;4398230;32;20267;-77
2021/12/25 00:10:33;;;;;;;290.27;134.67;;;;;;;;;;4397587;32;20217;-80
2021/12/25 00:12:58;;;;;;;268.43;133.23;;;;;;;;;;4411515;32;20218;-81
2021/12/25 00:15:24;;;;;;;297.07;136.60;;;;;;;;;;4407945;32;20570;-79
2021/12/25 00:17:50;;;;;;;268.23;132.10;;;;;;;;;;4406433;32;20333;-81
2021/12/25 00:20:16;;;;;;;269.13;131.80;;;;;;;;;;4406228;32;20205;-81
2021/12/25 00:22:41;;;;;;;280.40;137.03;;;;;;;;;;4406459;32;20217;-81
2021/12/25 00:25:07;;;;;;;272.43;131.27;;;;;;;;;;4392364;32;20290;-76
2021/12/25 00:35:15;;;;;;;224.37;113.13;;;;;;;;;;4408643;32;20251;-80
2021/12/25 00:37:41;;;;;;;234.77;112.57;;;;;;;;;;4408309;32;20289;-81
2021/12/25 00:40:07;;;;;;;213.63;108.03;;;;;;;;;;4407792;32;20202;-80
2021/12/25 00:42:32;;;;;;;201.90;100.53;;;;;;;;;;4407914;32;20251;-82
2021/12/25 00:44:58;;;;;;;193.47;100.37;;;;;;;;;;4407634;32;20264;-81
2021/12/25 00:47:24;;;;;;;205.03;102.70;;;;;;;;;;4406164;32;20248;-81
2021/12/25 00:49:49;;;;;;;229.93;102.80;;;;;;;;;;4407376;32;20206;-81
2021/12/25 00:52:15;;;;;;;195.93;100.57;;;;;;;;;;4407150;32;20244;-81
2021/12/25 00:54:41;;;;;;;215.07;100.93;;;;;;;;;;4407379;32;20268;-81
2021/12/25 00:57:09;;;;;;;187.80;92.27;;;;;;;;;;4407477;32;20330;-82
2021/12/25 00:59:35;;;;;;;159.97;81.20;;;;;;;;;;4409759;32;20553;-81
2021/12/25 01:02:01;;;;;;;154.37;80.40;;;;;;;;;;4407270;32;20326;-82
2021/12/25 01:04:26;;;;;;;176.20;83.57;;;;;;;;;;4406507;32;20344;-82
2021/12/25 01:06:52;;;;;;;186.37;86.40;;;;;;;;;;4405695;32;20209;-82
2021/12/25 01:09:18;;;;;;;168.20;83.43;;;;;;;;;;4407146;32;20649;-82
2021/12/25 01:11:47;;;;;;;170.43;83.50;;;;;;;;;;4407654;32;20251;-82
2021/12/25 01:29:56;;;;;;;207.37;100.47;;;;;;;;;;4407731;32;20278;-81
2021/12/25 01:48:24;;;;;;;304.63;150.37;;;;;;;;;;4416717;32;20275;-82
2021/12/25 01:50:50;;;;;;;294.23;152.93;;;;;;;;;;4414752;32;20202;-79
2021/12/25 01:53:15;;;;;;;332.17;157.40;;;;;;;;;;4399033;32;20197;-80
2021/12/25 01:55:41;;;;;;;301.20;155.67;;;;;;;;;;4415539;32;20216;-77
2021/12/25 01:58:07;;;;;;;309.83;155.63;;;;;;;;;;4417339;32;20181;-81
2021/12/25 02:00:41;;;;;;;285.30;137.87;;;;;;;;;;4416811;32;20244;-81
2021/12/25 02:03:13;;;;;;;270.23;129.63;;;;;;;;;;4416652;32;20190;-81
2021/12/25 02:05:40;;;;;;;229.53;116.13;;;;;;;;;;4416557;32;20274;-80
2021/12/25 02:08:06;;;;;;;229.33;109.60;;;;;;;;;;4414914;32;20408;-81
2021/12/25 02:10:31;;;;;;;241.80;115.13;;;;;;;;;;4407061;32;20613;-81
2021/12/25 02:12:57;;;;;;;237.13;118.43;;;;;;;;;;4407420;32;20316;-77
2021/12/25 02:15:26;;;;;;;242.60;115.10;;;;;;;;;;4406768;32;20341;-79
2021/12/25 02:20:32;;;;;;;253.53;119.00;;;;;;;;;;4405680;32;20233;-81
2021/12/25 02:23:04;;;;;;;245.80;117.53;;;;;;;;;;4407563;32;20225;-81
2021/12/25 02:25:36;;;;;;;238.10;116.07;;;;;;;;;;4408014;32;20403;-81
2021/12/25 02:28:04;;;;;;;247.37;122.87;;;;;;;;;;4410059;32;20217;-81
2021/12/25 02:30:30;;;;;;;257.13;132.27;;;;;;;;;;4408894;32;20221;-81
2021/12/25 02:32:58;;;;;;;244.50;123.70;;;;;;;;;;4408794;32;20594;-81
2021/12/25 02:35:25;;;;;;;250.33;125.57;;;;;;;;;;4408512;32;20229;-81
2021/12/25 02:37:51;;;;;;;250.30;125.03;;;;;;;;;;4408422;32;20280;-81
2021/12/25 02:40:16;;;;;;;222.83;109.07;;;;;;;;;;4408143;32;20290;-82
2021/12/25 02:42:43;;;;;;;223.27;107.20;;;;;;;;;;4393769;32;20213;-82
2021/12/25 02:45:17;;;;;;;213.83;103.03;;;;;;;;;;4407775;32;20287;-80
2021/12/25 02:47:45;;;;;;;208.27;103.20;;;;;;;;;;4407334;32;20644;-80
2021/12/25 02:50:12;;;;;;;215.00;103.60;;;;;;;;;;4393689;32;20791;-80
2021/12/25 02:52:38;;;;;;;201.13;101.50;;;;;;;;;;4408087;32;20288;-81
2021/12/25 02:55:06;;;;;;;198.00;98.20;;;;;;;;;;4407088;32;20444;-80
2021/12/25 02:57:32;;;;;;;174.17;87.83;;;;;;;;;;4407688;32;20707;-82
2021/12/25 02:59:57;;;;;;;142.03;72.03;;;;;;;;;;4407672;32;20242;-81
2021/12/25 03:02:23;;;;;;;155.70;80.07;;;;;;;;;;4393289;32;20210;-81
2021/12/25 03:04:49;;;;;;;164.60;85.60;;;;;;;;;;4407556;32;20544;-81
2021/12/25 03:07:15;;;;;;;187.60;90.80;;;;;;;;;;4407077;32;20256;-81
2021/12/25 03:09:42;;;;;;;224.90;101.10;;;;;;;;;;4407366;32;20319;-81
2021/12/25 03:12:13;;;;;;;265.60;128.50;;;;;;;;;;4393754;32;20198;-81
2021/12/25 03:15:02;;;;;;;290.40;127.43;;;;;;;;;;4407040;32;20237;-81
2021/12/25 03:17:28;;;;;;;221.20;109.17;;;;;;;;;;4406886;32;20383;-82
2021/12/25 03:19:55;;;;;;;225.77;108.60;;;;;;;;;;4407518;32;20251;-82
2021/12/25 03:22:21;;;;;;;220.57;106.13;;;;;;;;;;4394095;32;20721;-82
2021/12/25 03:24:47;;;;;;;222.50;112.30;;;;;;;;;;4407083;32;20228;-81
2021/12/25 03:27:13;;;;;;;208.30;104.70;;;;;;;;;;4393259;32;20331;-81
2021/12/25 03:29:41;;;;;;;218.33;107.80;;;;;;;;;;4406826;32;20221;-80
2021/12/25 03:32:08;;;;;;;226.30;110.77;;;;;;;;;;4406979;32;20201;-81
2021/12/25 03:34:34;;;;;;;251.97;113.50;;;;;;;;;;4407045;32;20217;-81
2021/12/25 03:37:00;;;;;;;252.87;120.77;;;;;;;;;;4407299;32;20193;-79
2021/12/25 03:39:25;;;;;;;260.20;121.53;;;;;;;;;;4393036;32;20282;-81
2021/12/25 03:41:51;;;;;;;232.33;114.00;;;;;;;;;;4406689;32;20201;-81
2021/12/25 03:44:16;;;;;;;219.53;107.27;;;;;;;;;;4392868;32;20563;-77
2021/12/25 03:46:42;;;;;;;224.93;110.07;;;;;;;;;;4406929;32;20299;-81
2021/12/25 03:49:27;;;;;;;234.53;115.63;;;;;;;;;;4406609;32;20798;-81
2021/12/25 03:57:45;;;;;;;223.93;114.50;;;;;;;;;;4406787;32;20201;-83
2021/12/25 04:00:14;;;;;;;216.00;105.73;;;;;;;;;;4406590;32;20294;-81
2021/12/25 04:02:54;;;;;;;230.70;105.13;;;;;;;;;;4406495;32;20567;-81
2021/12/25 04:05:25;;;;;;;201.77;103.70;;;;;;;;;;4394722;32;20252;-82
2021/12/25 04:08:06;;;;;;;217.23;110.27;;;;;;;;;;4393363;32;20332;-81
2021/12/25 04:10:38;;;;;;;194.23;99.97;;;;;;;;;;4406454;32;20592;-83
2021/12/25 04:13:14;;;;;;;193.80;97.40;;;;;;;;;;4406223;32;20657;-82
2021/12/25 04:15:41;;;;;;;201.03;103.10;;;;;;;;;;4406352;32;20213;-82
2021/12/25 04:18:09;;;;;;;184.37;99.03;;;;;;;;;;4406608;32;20229;-83
2021/12/25 04:20:36;;;;;;;195.27;99.43;;;;;;;;;;4392711;32;20229;-85
2021/12/25 04:23:07;;;;;;;188.07;95.03;;;;;;;;;;4406165;32;20224;-82
2021/12/25 04:25:35;;;;;;;188.80;96.60;;;;;;;;;;4406041;32;20351;-83
2021/12/25 04:28:10;;;;;;;197.77;101.60;;;;;;;;;;4406326;32;20532;-83
2021/12/25 05:05:17;;;;;;;186.43;94.57;;;;;;;;;;4392179;32;20233;-77
2021/12/25 05:07:43;;;;;;;170.90;92.17;;;;;;;;;;4405527;32;20213;-80
2021/12/25 05:10:09;;;;;;;185.30;90.27;;;;;;;;;;4405948;32;20278;-81
2021/12/25 05:12:34;;;;;;;189.80;92.17;;;;;;;;;;4405931;32;20215;-82
2021/12/25 05:15:00;;;;;;;179.57;91.37;;;;;;;;;;4405406;32;20213;-81
2021/12/25 05:17:26;;;;;;;178.03;91.70;;;;;;;;;;4405309;32;20215;-82
2021/12/25 05:19:51;;;;;;;172.47;90.87;;;;;;;;;;4405124;32;20240;-82
2021/12/25 05:22:18;;;;;;;171.37;89.13;;;;;;;;;;4405425;32;20201;-81
2021/12/25 05:24:44;;;;;;;185.73;91.90;;;;;;;;;;4405508;32;20251;-83
2021/12/25 05:27:12;;;;;;;177.73;88.10;;;;;;;;;;4405605;32;20276;-81
2021/12/25 05:29:41;;;;;;;174.53;89.80;;;;;;;;;;4405383;32;20646;-81
2021/12/25 05:32:06;;;;;;;173.03;88.83;;;;;;;;;;4405413;32;20607;-80
2021/12/25 05:34:32;;;;;;;179.20;91.67;;;;;;;;;;4390702;32;20248;-82
2021/12/25 05:36:57;;;;;;;197.37;96.33;;;;;;;;;;4390148;32;20278;-81
2021/12/25 05:39:23;;;;;;;206.83;99.00;;;;;;;;;;4405032;32;20217;-77
2021/12/25 05:41:49;;;;;;;196.00;99.13;;;;;;;;;;4405311;32;20225;-82
2021/12/25 05:44:14;;;;;;;198.00;101.10;;;;;;;;;;4404796;32;20328;-82
2021/12/25 05:46:40;;;;;;;221.93;110.63;;;;;;;;;;4405398;32;20272;-82
2021/12/25 05:49:05;;;;;;;272.97;123.97;;;;;;;;;;4405946;32;20683;-80
2021/12/25 05:51:31;;;;;;;247.80;122.63;;;;;;;;;;4404856;32;20345;-82
2021/12/25 05:53:56;;;;;;;261.83;134.33;;;;;;;;;;4405098;32;20746;-79
2021/12/25 05:56:23;;;;;;;230.10;125.23;;;;;;;;;;4405370;32;20246;-78
2021/12/25 05:58:49;;;;;;;239.40;118.67;;;;;;;;;;4406450;32;20271;-80
2021/12/25 06:01:14;;;;;;;227.67;112.80;;;;;;;;;;4392034;32;20205;-83
2021/12/25 06:03:40;;;;;;;226.23;113.87;;;;;;;;;;4407038;32;20418;-83
2021/12/25 06:06:06;;;;;;;236.30;117.97;;;;;;;;;;4409172;32;20571;-82
2021/12/25 06:08:32;;;;;;;241.10;118.00;;;;;;;;;;4408456;32;20336;-82
2021/12/25 06:10:59;;;;;;;255.67;125.23;;;;;;;;;;4408349;32;20197;-83
2021/12/25 06:13:24;;;;;;;257.30;134.53;;;;;;;;;;4408095;32;20194;-80
2021/12/25 06:15:54;;;;;;;271.17;137.83;;;;;;;;;;4408201;32;20261;-83
2021/12/25 06:18:19;;;;;;;265.03;134.87;;;;;;;;;;4408068;32;20202;-83
2021/12/25 06:20:44;;;;;;;261.07;132.03;;;;;;;;;;4406937;32;20209;-83
2021/12/25 06:23:10;;;;;;;259.00;130.77;;;;;;;;;;4409387;32;20330;-82
2021/12/25 06:25:35;;;;;;;241.37;128.20;;;;;;;;;;4407798;32;20260;-83
2021/12/25 06:28:01;;;;;;;238.53;122.20;;;;;;;;;;4409691;32;20198;-81
2021/12/25 06:30:26;;;;;;;235.60;123.13;;;;;;;;;;4408290;32;20301;-85
2021/12/25 06:32:52;;;;;;;238.30;125.67;;;;;;;;;;4407965;32;20265;-78
2021/12/25 06:35:18;;;;;;;231.07;122.40;;;;;;;;;;4407623;32;20309;-86
2021/12/25 06:37:46;;;;;;;227.60;118.70;;;;;;;;;;4407829;32;20216;-83
2021/12/25 06:40:17;;;;;;;222.97;116.67;;;;;;;;;;4407238;32;20551;-80
2021/12/25 06:42:45;;;;;;;228.77;115.23;;;;;;;;;;4407939;32;20246;-76
2021/12/25 06:45:10;;;;;;;195.83;101.47;;;;;;;;;;4407678;32;20310;-80
2021/12/25 06:47:37;;;;;;;202.03;102.53;;;;;;;;;;4407830;32;20270;-80
2021/12/25 06:50:04;;;;;;;185.53;92.63;;;;;;;;;;4407547;32;20699;-79
2021/12/25 06:52:30;;;;;;;172.67;88.87;;;;;;;;;;4407961;32;20584;-79
2021/12/25 06:54:55;;;;;;;209.53;106.63;;;;;;;;;;4407121;32;20243;-79
2021/12/25 06:57:20;;;;;;;202.90;103.80;;;;;;;;;;4393857;32;20285;-83
2021/12/25 06:59:46;;;;;;;189.83;98.03;;;;;;;;;;4407192;32;20240;-83
2021/12/25 07:02:12;;;;;;;199.37;105.00;;;;;;;;;;4407654;32;20362;-83
2021/12/25 07:04:38;;;;;;;205.50;107.23;;;;;;;;;;4407101;32;20248;-82
2021/12/25 07:07:04;;;;;;;201.30;107.33;;;;;;;;;;4408835;32;20197;-79
2021/12/25 07:09:29;;;;;;;230.90;112.40;;;;;;;;;;4407060;32;20662;-80
2021/12/25 07:11:56;;;;;;;233.40;122.63;;;;;;;;;;4408193;32;20281;-76
2021/12/25 07:14:22;;;;;;;278.03;154.10;;;;;;;;;;4410599;32;20229;-79
2021/12/25 07:16:47;;;;;;;300.90;156.90;;;;;;;;;;4408694;32;20617;-80
2021/12/25 07:19:15;;;;;;;325.17;177.93;;;;;;;;;;4408547;32;20648;-78
2021/12/25 07:21:41;;;;;;;329.80;177.80;;;;;;;;;;4407486;32;20307;-80
2021/12/25 07:24:08;;;;;;;342.57;174.13;;;;;;;;;;4407136;32;20222;-78
2021/12/25 07:26:34;;;;;;;329.23;171.27;;;;;;;;;;4407191;32;20218;-80
2021/12/25 07:28:59;;;;;;;284.00;148.20;;;;;;;;;;4408064;32;20593;-82
2021/12/25 07:31:25;;;;;;;317.97;164.67;;;;;;;;;;4408691;32;20198;-80
2021/12/25 07:33:50;;;;;;;298.13;156.37;;;;;;;;;;4407325;32;20356;-79
2021/12/25 07:36:16;;;;;;;317.67;164.30;;;;;;;;;;4406885;32;20278;-78
2021/12/25 07:38:42;;;;;;;324.07;171.67;;;;;;;;;;4406890;32;20547;-81
2021/12/25 07:41:07;;;;;;;353.97;184.00;;;;;;;;;;4406339;32;20275;-79
2021/12/25 07:43:33;;;;;;;326.47;186.20;;;;;;;;;;4406593;32;20193;-81
2021/12/25 07:45:58;;;;;;;337.60;183.03;;;;;;;;;;4406982;32;20214;-80
2021/12/25 07:48:26;;;;;;;375.10;188.87;;;;;;;;;;4406945;32;20265;-79
2021/12/25 07:50:52;;;;;;;456.33;245.43;;;;;;;;;;4406890;32;20576;-79
2021/12/25 07:53:18;;;;;;;336.00;174.60;;;;;;;;;;4406888;32;20189;-78
2021/12/25 07:55:44;;;;;;;307.33;165.97;;;;;;;;;;4406578;32;20263;-80
2021/12/25 07:58:10;;;;;;;275.33;138.60;;;;;;;;;;4406409;32;20543;-79
2021/12/25 08:00:36;;;;;;;250.80;132.27;;;;;;;;;;4406192;32;20218;-81
2021/12/25 08:03:02;;;;;;;226.77;123.10;;;;;;;;;;4406452;32;20276;-79
2021/12/25 08:05:27;;;;;;;220.87;120.07;;;;;;;;;;4406285;32;20643;-80
2021/12/25 08:07:53;;;;;;;224.13;119.90;;;;;;;;;;4406733;32;20201;-79
2021/12/25 08:10:20;;;;;;;216.33;118.97;;;;;;;;;;4406768;32;20646;-79
2021/12/25 08:12:51;;;;;;;191.00;102.97;;;;;;;;;;4406449;32;20201;-79
2021/12/25 08:15:20;;;;;;;203.50;110.40;;;;;;;;;;4407523;32;20214;-78
2021/12/25 08:17:47;;;;;;;204.47;106.57;;;;;;;;;;4406487;32;20326;-79
2021/12/25 08:20:13;;;;;;;201.50;109.57;;;;;;;;;;4406079;32;20286;-79
2021/12/25 08:22:40;;;;;;;220.07;118.47;;;;;;;;;;4405932;32;20650;-79
2021/12/25 08:25:07;;;;;;;209.47;112.90;;;;;;;;;;4405872;32;20659;-80
2021/12/25 08:27:32;;;;;;;194.07;107.33;;;;;;;;;;4406265;32;20266;-79
2021/12/25 08:29:58;;;;;;;195.43;104.30;;;;;;;;;;4406807;32;20591;-79
2021/12/25 08:32:24;;;;;;;139.13;77.63;;;;;;;;;;4407805;32;20265;-78
2021/12/25 08:34:49;;;;;;;141.37;81.40;;;;;;;;;;4406470;32;20213;-80
2021/12/25 08:37:15;;;;;;;223.13;116.83;;;;;;;;;;4406641;32;20606;-80
2021/12/25 08:39:41;;;;;;;227.57;121.93;;;;;;;;;;4406761;32;20375;-81
2021/12/25 08:42:10;;;;;;;216.90;116.23;;;;;;;;;;4405472;32;20215;-82
2021/12/25 08:44:40;;;;;;;329.50;168.33;;;;;;;;;;4405630;32;20247;-77
2021/12/25 08:47:11;;;;;;;215.47;112.47;;;;;;;;;;4405976;32;20682;-81
2021/12/25 08:49:40;;;;;;;189.73;101.97;;;;;;;;;;4393096;32;20535;-82
2021/12/25 08:52:10;;;;;;;200.00;107.47;;;;;;;;;;4396874;32;20217;-81
2021/12/25 08:54:36;;;;;;;194.37;104.53;;;;;;;;;;4383674;32;20252;-80
2021/12/25 08:57:05;;;;;;;220.10;116.70;;;;;;;;;;4412291;32;20242;-78
2021/12/25 08:59:31;;;;;;;215.50;112.97;;;;;;;;;;4406273;32;20277;-79
2021/12/25 09:01:57;;;;;;;203.13;104.37;;;;;;;;;;4405555;32;20201;-81
2021/12/25 09:04:22;;;;;;;196.10;103.47;;;;;;;;;;4406758;32;20310;-83
2021/12/25 09:06:48;;;;;;;177.90;96.23;;;;;;;;;;4405566;32;20202;-82
2021/12/25 09:09:13;;;;;;;178.63;92.20;;;;;;;;;;4406496;32;20623;-81
2021/12/25 09:11:40;;;;;;;168.50;93.87;;;;;;;;;;4406926;32;20555;-85
2021/12/25 09:14:07;;;;;;;161.80;88.90;;;;;;;;;;4392820;32;20297;-82
2021/12/25 09:16:33;;;;;;;163.27;89.73;;;;;;;;;;4406296;32;20649;-84
2021/12/25 09:18:58;;;;;;;148.07;84.50;;;;;;;;;;4405353;32;20230;-81
2021/12/25 09:21:24;;;;;;;137.80;79.43;;;;;;;;;;4405112;32;20232;-81
2021/12/25 09:23:50;;;;;;;149.33;83.93;;;;;;;;;;4405637;32;20210;-83
2021/12/25 09:26:17;;;;;;;158.00;93.10;;;;;;;;;;4404963;32;20213;-82
2021/12/25 09:28:43;;;;;;;126.53;74.30;;;;;;;;;;4405027;32;20221;-83
2021/12/25 09:31:08;;;;;;;129.30;68.80;;;;;;;;;;4405535;32;20392;-80
2021/12/25 09:33:34;;;;;;;103.60;60.20;;;;;;;;;;4405210;32;20531;-81
2021/12/25 09:36:02;;;;;;;123.33;68.17;;;;;;;;;;4405864;32;20245;-80
2021/12/25 09:38:29;;;;;;;106.47;62.63;;;;;;;;;;4406608;32;20562;-84
2021/12/25 09:40:58;;;;;;;112.30;65.30;;;;;;;;;;4406382;32;20197;-83
2021/12/25 09:43:25;;;;;;;125.27;67.47;;;;;;;;;;4405383;32;20243;-84
2021/12/25 09:45:50;;;;;;;107.23;62.60;;;;;;;;;;4405848;32;20197;-84
2021/12/25 09:48:16;;;;;;;85.50;48.47;;;;;;;;;;4406950;32;20236;-82
2021/12/25 09:50:42;;;;;;;65.53;34.23;;;;;;;;;;4406796;32;20244;-83
2021/12/25 09:53:11;;;;;;;78.33;46.30;;;;;;;;;;4404953;32;20285;-83
2021/12/25 09:55:38;;;;;;;80.90;43.70;;;;;;;;;;4405630;32;20217;-84
2021/12/25 09:58:04;;;;;;;92.77;51.50;;;;;;;;;;4406378;32;20201;-81
2021/12/25 10:00:30;;;;;;;91.03;52.47;;;;;;;;;;4405246;32;20675;-80
2021/12/25 10:02:57;;;;;;;92.67;53.57;;;;;;;;;;4405643;32;20193;-80
2021/12/25 10:05:27;;;;;;;108.67;61.30;;;;;;;;;;4405461;32;20218;-79
2021/12/25 10:08:10;;;;;;;96.97;53.67;;;;;;;;;;4410552;32;20193;-86
2021/12/25 10:10:42;;;;;;;89.77;50.90;;;;;;;;;;4409059;32;20213;-83
2021/12/25 10:13:31;;;;;;;91.90;49.80;;;;;;;;;;4394011;32;20285;-80
2021/12/25 10:16:26;;;;;;;88.23;53.67;;;;;;;;;;4407480;32;20222;-80
2021/12/25 10:19:11;;;;;;;93.80;54.43;;;;;;;;;;4406337;32;20300;-80
2021/12/25 10:21:37;;;;;;;99.40;53.03;;;;;;;;;;4406379;32;20622;-79
2021/12/25 10:24:12;;;;;;;118.70;71.07;;;;;;;;;;4407218;32;20244;-83
2021/12/25 10:26:41;;;;;;;98.17;59.13;;;;;;;;;;4405003;32;20209;-79
2021/12/25 10:29:27;;;;;;;110.30;68.30;;;;;;;;;;4405852;32;20251;-87
2021/12/25 10:32:02;;;;;;;105.27;61.07;;;;;;;;;;4409177;32;20223;-83
2021/12/25 10:34:31;;;;;;;110.97;62.03;;;;;;;;;;4405545;32;20555;-78
2021/12/25 10:37:07;;;;;;;141.70;72.03;;;;;;;;;;4393703;32;20233;-79
2021/12/25 10:39:33;;;;;;;114.67;62.77;;;;;;;;;;4405718;32;20220;-85
2021/12/25 10:42:09;;;;;;;103.27;61.90;;;;;;;;;;4407016;32;20303;-87
2021/12/25 10:44:38;;;;;;;114.03;62.90;;;;;;;;;;4395359;32;20252;-78
2021/12/25 10:47:06;;;;;;;156.40;85.90;;;;;;;;;;4410424;32;20710;-84
2021/12/25 10:49:34;;;;;;;131.40;74.43;;;;;;;;;;4395483;32;20344;-86
2021/12/25 10:52:20;;;;;;;124.30;70.77;;;;;;;;;;4411994;32;20212;-84
2021/12/25 10:54:50;;;;;;;113.87;66.60;;;;;;;;;;4402461;32;20247;-81
2021/12/25 10:57:32;;;;;;;118.47;67.57;;;;;;;;;;4421453;32;20225;-83
2021/12/25 10:59:59;;;;;;;146.40;82.87;;;;;;;;;;4421630;32;20236;-83
2021/12/25 11:02:40;;;;;;;201.13;116.90;;;;;;;;;;4421559;32;20197;-83
2021/12/25 11:05:14;;;;;;;149.70;76.33;;;;;;;;;;4421432;32;20234;-83
2021/12/25 11:07:40;;;;;;;122.40;71.17;;;;;;;;;;4420919;32;20245;-83
2021/12/25 11:10:07;;;;;;;122.20;70.67;;;;;;;;;;4413387;32;20275;-83
2021/12/25 11:12:34;;;;;;;122.70;69.83;;;;;;;;;;4408564;32;20209;-83
2021/12/25 11:15:21;;;;;;;130.47;74.27;;;;;;;;;;4408261;32;20213;-83
2021/12/25 11:17:52;;;;;;;126.50;71.40;;;;;;;;;;4407936;32;20492;-83
2021/12/25 11:20:31;;;;;;;105.97;63.67;;;;;;;;;;4407233;32;20646;-83
2021/12/25 11:22:59;;;;;;;101.00;60.33;;;;;;;;;;4393920;32;20282;-83
2021/12/25 11:25:28;;;;;;;97.47;60.87;;;;;;;;;;4407867;32;20651;-83
2021/12/25 11:27:54;;;;;;;119.77;68.37;;;;;;;;;;4407230;32;20205;-82
2021/12/25 11:30:23;;;;;;;107.67;58.60;;;;;;;;;;4407026;32;20332;-83
2021/12/25 11:32:49;;;;;;;112.93;60.30;;;;;;;;;;4406704;32;20194;-82
2021/12/25 11:35:21;;;;;;;119.77;67.57;;;;;;;;;;4407251;32;20238;-83
2021/12/25 11:37:48;;;;;;;102.13;60.27;;;;;;;;;;4393137;32;20302;-83
2021/12/25 11:40:15;;;;;;;102.97;56.53;;;;;;;;;;4393130;32;20341;-82
2021/12/25 11:42:46;;;;;;;100.67;54.30;;;;;;;;;;4406674;32;20268;-83
2021/12/25 11:45:18;;;;;;;111.60;60.60;;;;;;;;;;4407269;32;20247;-81
2021/12/25 11:47:47;;;;;;;122.33;68.93;;;;;;;;;;4406815;32;20216;-82
2021/12/25 11:50:34;;;;;;;115.50;62.50;;;;;;;;;;4406780;32;20214;-83
2021/12/25 11:53:10;;;;;;;98.33;58.63;;;;;;;;;;4407214;32;20193;-83
2021/12/25 11:58:43;;;;;;;104.80;60.97;;;;;;;;;;4406775;32;20232;-83
2021/12/25 12:01:24;;;;;;;106.00;60.93;;;;;;;;;;4406243;32;20212;-82
2021/12/25 12:04:11;;;;;;;109.40;63.47;;;;;;;;;;4406412;32;20220;-81
2021/12/25 12:06:45;;;;;;;102.00;59.93;;;;;;;;;;4406712;32;20209;-83
2021/12/25 12:09:24;;;;;;;105.00;59.60;;;;;;;;;;4406745;32;20441;-82
2021/12/25 12:12:11;;;;;;;115.53;64.40;;;;;;;;;;4407031;32;20561;-83
2021/12/25 12:14:38;;;;;;;109.20;60.80;;;;;;;;;;4406405;32;20217;-82
2021/12/25 12:17:23;;;;;;;107.93;58.07;;;;;;;;;;4406589;32;20280;-83
2021/12/25 12:19:51;;;;;;;106.73;56.83;;;;;;;;;;4406511;32;20236;-83
2021/12/25 12:25:14;;;;;;;94.37;60.47;;;;;;;;;;4405923;32;20297;-79
2021/12/25 12:27:48;;;;;;;109.70;56.50;;;;;;;;;;4405302;32;20244;-83
2021/12/25 12:30:39;;;;;;;132.97;72.40;;;;;;;;;;4405571;32;20213;-83
2021/12/25 12:33:17;;;;;;;134.13;74.33;;;;;;;;;;4406919;32;20198;-82
2021/12/25 12:35:45;;;;;;;209.27;104.97;;;;;;;;;;4406485;32;20251;-83
2021/12/25 12:38:36;;;;;;;173.80;94.30;;;;;;;;;;4406504;32;20299;-83
2021/12/25 12:41:21;;;;;;;167.90;89.13;;;;;;;;;;4405901;32;20208;-83
2021/12/25 12:44:24;;;;;;;154.20;89.10;;;;;;;;;;4406067;32;20229;-82
2021/12/25 12:46:55;;;;;;;146.40;86.70;;;;;;;;;;4403670;32;20240;-80
2021/12/25 12:49:28;;;;;;;170.30;90.37;;;;;;;;;;4392327;32;20327;-84
2021/12/25 12:52:12;;;;;;;173.13;97.37;;;;;;;;;;4405682;32;20201;-82
2021/12/25 12:54:43;;;;;;;214.37;119.50;;;;;;;;;;4405918;32;20263;-80
2021/12/25 12:57:09;;;;;;;185.33;101.80;;;;;;;;;;4391754;32;20645;-83
2021/12/25 12:59:50;;;;;;;154.53;88.53;;;;;;;;;;4405314;32;20252;-83
2021/12/25 13:02:16;;;;;;;158.63;92.90;;;;;;;;;;4405234;32;20236;-81
2021/12/25 13:04:50;;;;;;;166.43;94.63;;;;;;;;;;4405505;32;20248;-83
2021/12/25 13:07:18;;;;;;;171.80;97.30;;;;;;;;;;4405735;32;20193;-83
2021/12/25 13:09:52;;;;;;;199.87;113.13;;;;;;;;;;4405777;32;20666;-83
2021/12/25 13:12:43;;;;;;;177.10;95.90;;;;;;;;;;4405429;32;20524;-83
2021/12/25 13:15:32;;;;;;;292.83;147.77;;;;;;;;;;4405567;32;20284;-83
2021/12/25 13:18:04;;;;;;;109.27;63.40;;;;;;;;;;4406251;32;20258;-83
2021/12/25 13:20:46;;;;;;;96.67;56.23;;;;;;;;;;4406033;32;20757;-83
2021/12/25 13:23:51;;;;;;;98.03;53.40;;;;;;;;;;4405151;32;20236;-83
2021/12/25 13:26:20;;;;;;;97.47;54.97;;;;;;;;;;4404308;32;20325;-80
2021/12/25 13:28:47;;;;;;;110.23;57.60;;;;;;;;;;4405660;32;20240;-83
2021/12/25 13:31:16;;;;;;;96.93;54.90;;;;;;;;;;4405025;32;20275;-83
2021/12/25 13:34:13;;;;;;;100.03;56.60;;;;;;;;;;4405368;32;20279;-83
2021/12/25 13:36:41;;;;;;;105.40;58.97;;;;;;;;;;4391292;32;20403;-83
2021/12/25 13:39:12;;;;;;;99.93;60.33;;;;;;;;;;4404986;32;20251;-83
2021/12/25 13:41:46;;;;;;;116.23;64.03;;;;;;;;;;4405112;32;20209;-83
2021/12/25 13:44:34;;;;;;;141.60;75.60;;;;;;;;;;4405355;32;20259;-83
2021/12/25 13:47:12;;;;;;;189.10;99.10;;;;;;;;;;4405245;32;20218;-83
2021/12/25 13:49:40;;;;;;;161.70;90.87;;;;;;;;;;4404924;32;20666;-83
2021/12/25 13:52:33;;;;;;;188.83;102.27;;;;;;;;;;4405679;32;20257;-82
2021/12/25 13:55:10;;;;;;;190.13;109.33;;;;;;;;;;4396444;32;20234;-84
2021/12/25 13:57:40;;;;;;;200.27;108.17;;;;;;;;;;4404766;32;20238;-83
2021/12/25 14:00:28;;;;;;;200.20;111.00;;;;;;;;;;4404569;32;20225;-83
2021/12/25 14:03:00;;;;;;;192.47;110.03;;;;;;;;;;4405042;32;20233;-82
2021/12/25 14:05:29;;;;;;;211.50;112.93;;;;;;;;;;4404415;32;20217;-84
2021/12/25 14:07:54;;;;;;;194.80;106.90;;;;;;;;;;4404998;32;20281;-83
2021/12/25 14:10:25;;;;;;;199.10;105.17;;;;;;;;;;4404412;32;20221;-83
2021/12/25 14:12:55;;;;;;;193.53;98.13;;;;;;;;;;4404782;32;20326;-83
2021/12/25 14:15:25;;;;;;;184.37;100.53;;;;;;;;;;4404064;32;20753;-83
2021/12/25 14:17:51;;;;;;;187.37;99.50;;;;;;;;;;4404464;32;20273;-82
2021/12/25 14:20:18;;;;;;;169.37;93.27;;;;;;;;;;4404356;32;20256;-82
2021/12/25 14:22:45;;;;;;;171.73;96.23;;;;;;;;;;4404769;32;20300;-84
2021/12/25 14:25:42;;;;;;;181.40;99.03;;;;;;;;;;4406987;32;20292;-82
2021/12/25 14:28:30;;;;;;;162.37;92.10;;;;;;;;;;4407771;32;20268;-83
2021/12/25 14:31:00;;;;;;;145.63;86.00;;;;;;;;;;4395281;32;20719;-82
2021/12/25 14:33:26;;;;;;;160.03;92.30;;;;;;;;;;4408014;32;20202;-82
2021/12/25 14:35:52;;;;;;;173.67;91.53;;;;;;;;;;4409031;32;20252;-83
2021/12/25 14:38:18;;;;;;;155.90;88.57;;;;;;;;;;4393826;32;20275;-82
2021/12/25 14:40:46;;;;;;;161.63;85.53;;;;;;;;;;4407139;32;20290;-83
2021/12/25 14:43:16;;;;;;;163.13;87.07;;;;;;;;;;4407553;32;20531;-83
2021/12/25 14:45:46;;;;;;;156.03;82.10;;;;;;;;;;4407313;32;20293;-83
2021/12/25 14:48:23;;;;;;;153.87;85.37;;;;;;;;;;4407672;32;20273;-83
2021/12/25 14:50:54;;;;;;;153.43;84.93;;;;;;;;;;4408412;32;20192;-82
2021/12/25 14:53:19;;;;;;;160.30;89.03;;;;;;;;;;4409550;32;20209;-85
2021/12/25 14:55:51;;;;;;;168.17;89.00;;;;;;;;;;4410139;32;20267;-83
2021/12/25 14:58:25;;;;;;;166.17;95.23;;;;;;;;;;4408460;32;20206;-81
2021/12/25 15:01:12;;;;;;;189.37;102.40;;;;;;;;;;4410470;32;20294;-82
2021/12/25 15:03:40;;;;;;;198.20;109.03;;;;;;;;;;4408828;32;20197;-80
2021/12/25 15:06:18;;;;;;;222.47;123.53;;;;;;;;;;4394262;32;20225;-81
2021/12/25 15:08:43;;;;;;;248.50;130.20;;;;;;;;;;4410051;32;20783;-80
2021/12/25 15:11:15;;;;;;;257.27;134.90;;;;;;;;;;4411036;32;20253;-82
2021/12/25 15:13:55;;;;;;;232.57;125.23;;;;;;;;;;4398226;32;20360;-84
2021/12/25 15:16:39;;;;;;;218.93;117.83;;;;;;;;;;4409834;32;20268;-85
2021/12/25 15:19:05;;;;;;;212.50;116.10;;;;;;;;;;4409002;32;20260;-86
2021/12/25 15:21:41;;;;;;;146.57;72.17;;;;;;;;;;4407759;32;20322;-84
2021/12/25 15:24:16;;;;;;;237.23;119.67;;;;;;;;;;4408961;32;20240;-85
2021/12/25 15:26:45;;;;;;;241.27;118.47;;;;;;;;;;4407481;32;20220;-85
2021/12/25 15:29:11;;;;;;;236.90;116.57;;;;;;;;;;4407114;32;20289;-85
2021/12/25 15:31:37;;;;;;;230.40;118.83;;;;;;;;;;4407354;32;20227;-85
2021/12/25 15:34:10;;;;;;;225.60;114.83;;;;;;;;;;4407294;32;20735;-85
2021/12/25 15:36:42;;;;;;;231.17;115.40;;;;;;;;;;4407476;32;20198;-85
2021/12/25 15:39:19;;;;;;;411.27;165.73;;;;;;;;;;4407270;32;20285;-85
2021/12/25 15:41:47;;;;;;;280.57;121.33;;;;;;;;;;4407674;32;20607;-84